sensor_id;sensor_type;location;lat;lon;timestamp;P1;durP1;ratioP1;P2;durP2;ratioP2
18917;SDS011;9591;52.742;13.650;2023-04-08T00:02:14;26.30;;;12.30;;
18917;SDS011;9591;52.742;13.650;2023-04-08T00:05:01;35.60;;;12.60;;
18917;SDS011;9591;52.742;13.650;2023-04-08T00:07:49;33.40;;;13.07;;
18917;SDS011;9591;52.742;13.650;2023-04-08T00:10:35;33.70;;;12.47;;
18917;SDS011;9591;52.742;13.650;2023-04-08T00:13:24;35.10;;;12.60;;
18917;SDS011;9591;52.742;13.650;2023-04-08T00:16:11;30.23;;;12.67;;
18917;SDS011;9591;52.742;13.650;2023-04-08T00:18:57;37.47;;;12.90;;
18917;SDS011;9591;52.742;13.650;2023-04-08T00:21:44;35.13;;;12.43;;
18917;SDS011;9591;52.742;13.650;2023-04-08T00:24:31;33.40;;;12.50;;
18917;SDS011;9591;52.742;13.650;2023-04-08T00:27:18;34.37;;;13.10;;
18917;SDS011;9591;52.742;13.650;2023-04-08T00:30:07;41.43;;;13.73;;
18917;SDS011;9591;52.742;13.650;2023-04-08T00:32:54;35.93;;;13.70;;
18917;SDS011;9591;52.742;13.650;2023-04-08T00:35:41;38.40;;;13.17;;
18917;SDS011;9591;52.742;13.650;2023-04-08T00:38:28;41.30;;;13.07;;
18917;SDS011;9591;52.742;13.650;2023-04-08T00:41:15;32.00;;;13.10;;
18917;SDS011;9591;52.742;13.650;2023-04-08T00:44:02;35.83;;;13.73;;
18917;SDS011;9591;52.742;13.650;2023-04-08T00:46:50;34.27;;;12.57;;
18917;SDS011;9591;52.742;13.650;2023-04-08T00:49:37;36.70;;;11.93;;
18917;SDS011;9591;52.742;13.650;2023-04-08T00:52:24;40.13;;;13.90;;
18917;SDS011;9591;52.742;13.650;2023-04-08T00:55:10;33.60;;;12.67;;
18917;SDS011;9591;52.742;13.650;2023-04-08T00:57:57;35.30;;;13.10;;
18917;SDS011;9591;52.742;13.650;2023-04-08T01:00:45;38.47;;;12.50;;
18917;SDS011;9591;52.742;13.650;2023-04-08T01:03:49;35.93;;;13.27;;
18917;SDS011;9591;52.742;13.650;2023-04-08T01:06:43;36.73;;;13.00;;
18917;SDS011;9591;52.742;13.650;2023-04-08T01:09:35;34.27;;;12.97;;
18917;SDS011;9591;52.742;13.650;2023-04-08T01:12:24;40.00;;;13.77;;
18917;SDS011;9591;52.742;13.650;2023-04-08T01:15:13;33.43;;;12.20;;
18917;SDS011;9591;52.742;13.650;2023-04-08T01:18:01;31.57;;;12.97;;
18917;SDS011;9591;52.742;13.650;2023-04-08T01:20:54;33.07;;;12.17;;
18917;SDS011;9591;52.742;13.650;2023-04-08T01:23:52;32.40;;;12.23;;
18917;SDS011;9591;52.742;13.650;2023-04-08T01:26:46;32.10;;;11.73;;
18917;SDS011;9591;52.742;13.650;2023-04-08T01:29:33;32.43;;;12.60;;
18917;SDS011;9591;52.742;13.650;2023-04-08T01:32:23;34.47;;;12.57;;
18917;SDS011;9591;52.742;13.650;2023-04-08T01:35:12;38.53;;;12.17;;
18917;SDS011;9591;52.742;13.650;2023-04-08T01:38:01;38.10;;;13.00;;
18917;SDS011;9591;52.742;13.650;2023-04-08T01:40:50;29.63;;;11.37;;
18917;SDS011;9591;52.742;13.650;2023-04-08T01:43:41;32.47;;;11.97;;
18917;SDS011;9591;52.742;13.650;2023-04-08T01:46:28;29.37;;;11.77;;
18917;SDS011;9591;52.742;13.650;2023-04-08T01:49:17;28.83;;;12.13;;
18917;SDS011;9591;52.742;13.650;2023-04-08T01:52:04;41.00;;;12.27;;
18917;SDS011;9591;52.742;13.650;2023-04-08T01:54:55;34.07;;;12.93;;
18917;SDS011;9591;52.742;13.650;2023-04-08T01:57:43;34.17;;;12.80;;
18917;SDS011;9591;52.742;13.650;2023-04-08T02:00:34;35.30;;;12.60;;
18917;SDS011;9591;52.742;13.650;2023-04-08T02:03:22;31.70;;;11.47;;
18917;SDS011;9591;52.742;13.650;2023-04-08T02:06:11;34.87;;;11.70;;
18917;SDS011;9591;52.742;13.650;2023-04-08T02:08:58;28.47;;;11.57;;
18917;SDS011;9591;52.742;13.650;2023-04-08T02:11:46;34.20;;;11.53;;
18917;SDS011;9591;52.742;13.650;2023-04-08T02:14:33;32.87;;;13.33;;
18917;SDS011;9591;52.742;13.650;2023-04-08T02:17:27;33.83;;;12.70;;
18917;SDS011;9591;52.742;13.650;2023-04-08T02:20:20;31.47;;;12.47;;
18917;SDS011;9591;52.742;13.650;2023-04-08T02:23:09;32.33;;;13.03;;
18917;SDS011;9591;52.742;13.650;2023-04-08T02:26:00;24.93;;;11.33;;
18917;SDS011;9591;52.742;13.650;2023-04-08T02:28:50;37.30;;;12.53;;
18917;SDS011;9591;52.742;13.650;2023-04-08T02:31:40;32.53;;;12.60;;
18917;SDS011;9591;52.742;13.650;2023-04-08T02:34:29;37.13;;;12.63;;
18917;SDS011;9591;52.742;13.650;2023-04-08T02:37:18;33.83;;;12.67;;
18917;SDS011;9591;52.742;13.650;2023-04-08T02:43:10;30.97;;;12.50;;
18917;SDS011;9591;52.742;13.650;2023-04-08T02:45:57;29.90;;;12.20;;
18917;SDS011;9591;52.742;13.650;2023-04-08T02:48:47;32.90;;;12.10;;
18917;SDS011;9591;52.742;13.650;2023-04-08T02:51:35;32.47;;;12.70;;
18917;SDS011;9591;52.742;13.650;2023-04-08T02:54:22;38.17;;;14.00;;
18917;SDS011;9591;52.742;13.650;2023-04-08T02:57:09;38.27;;;13.40;;
18917;SDS011;9591;52.742;13.650;2023-04-08T02:59:56;34.57;;;13.07;;
18917;SDS011;9591;52.742;13.650;2023-04-08T03:02:43;27.40;;;12.00;;
18917;SDS011;9591;52.742;13.650;2023-04-08T03:05:30;33.27;;;13.10;;
18917;SDS011;9591;52.742;13.650;2023-04-08T03:08:19;31.57;;;13.20;;
18917;SDS011;9591;52.742;13.650;2023-04-08T03:11:05;32.57;;;12.00;;
18917;SDS011;9591;52.742;13.650;2023-04-08T03:13:52;36.23;;;12.73;;
18917;SDS011;9591;52.742;13.650;2023-04-08T03:16:39;30.93;;;12.27;;
18917;SDS011;9591;52.742;13.650;2023-04-08T03:19:26;36.57;;;13.17;;
18917;SDS011;9591;52.742;13.650;2023-04-08T03:22:13;31.97;;;12.63;;
18917;SDS011;9591;52.742;13.650;2023-04-08T03:25:01;35.10;;;13.33;;
18917;SDS011;9591;52.742;13.650;2023-04-08T03:27:48;34.80;;;12.20;;
18917;SDS011;9591;52.742;13.650;2023-04-08T03:30:35;34.07;;;12.27;;
18917;SDS011;9591;52.742;13.650;2023-04-08T03:33:22;34.07;;;12.43;;
18917;SDS011;9591;52.742;13.650;2023-04-08T03:36:09;35.00;;;12.37;;
18917;SDS011;9591;52.742;13.650;2023-04-08T03:38:56;28.63;;;11.67;;
18917;SDS011;9591;52.742;13.650;2023-04-08T03:41:44;32.30;;;12.50;;
18917;SDS011;9591;52.742;13.650;2023-04-08T03:44:31;27.63;;;10.53;;
18917;SDS011;9591;52.742;13.650;2023-04-08T03:47:18;27.47;;;10.87;;
18917;SDS011;9591;52.742;13.650;2023-04-08T03:50:05;27.43;;;11.67;;
18917;SDS011;9591;52.742;13.650;2023-04-08T03:52:53;26.70;;;10.50;;
18917;SDS011;9591;52.742;13.650;2023-04-08T03:55:39;33.47;;;12.07;;
18917;SDS011;9591;52.742;13.650;2023-04-08T03:58:28;28.60;;;11.67;;
18917;SDS011;9591;52.742;13.650;2023-04-08T04:01:15;34.73;;;12.40;;
18917;SDS011;9591;52.742;13.650;2023-04-08T04:04:01;29.30;;;11.20;;
18917;SDS011;9591;52.742;13.650;2023-04-08T04:06:48;31.47;;;12.60;;
18917;SDS011;9591;52.742;13.650;2023-04-08T04:09:35;36.60;;;13.80;;
18917;SDS011;9591;52.742;13.650;2023-04-08T04:12:22;36.50;;;14.13;;
18917;SDS011;9591;52.742;13.650;2023-04-08T04:15:11;30.73;;;13.27;;
18917;SDS011;9591;52.742;13.650;2023-04-08T04:17:57;31.07;;;12.33;;
18917;SDS011;9591;52.742;13.650;2023-04-08T04:20:44;34.87;;;13.47;;
18917;SDS011;9591;52.742;13.650;2023-04-08T04:23:31;45.07;;;13.80;;
18917;SDS011;9591;52.742;13.650;2023-04-08T04:26:18;37.73;;;13.53;;
18917;SDS011;9591;52.742;13.650;2023-04-08T04:29:05;36.70;;;14.07;;
18917;SDS011;9591;52.742;13.650;2023-04-08T04:31:53;40.50;;;15.47;;
18917;SDS011;9591;52.742;13.650;2023-04-08T04:34:40;34.70;;;12.77;;
18917;SDS011;9591;52.742;13.650;2023-04-08T04:37:28;33.00;;;11.97;;
18917;SDS011;9591;52.742;13.650;2023-04-08T04:40:15;46.37;;;15.30;;
18917;SDS011;9591;52.742;13.650;2023-04-08T04:43:02;35.87;;;14.47;;
18917;SDS011;9591;52.742;13.650;2023-04-08T04:45:48;35.90;;;13.50;;
18917;SDS011;9591;52.742;13.650;2023-04-08T04:48:37;45.97;;;15.07;;
18917;SDS011;9591;52.742;13.650;2023-04-08T04:51:23;46.23;;;14.77;;
18917;SDS011;9591;52.742;13.650;2023-04-08T04:54:11;37.30;;;14.60;;
18917;SDS011;9591;52.742;13.650;2023-04-08T04:56:57;51.13;;;19.37;;
18917;SDS011;9591;52.742;13.650;2023-04-08T04:59:45;46.83;;;16.53;;
18917;SDS011;9591;52.742;13.650;2023-04-08T05:02:32;46.43;;;16.30;;
18917;SDS011;9591;52.742;13.650;2023-04-08T05:05:20;46.47;;;16.77;;
18917;SDS011;9591;52.742;13.650;2023-04-08T05:08:07;46.50;;;15.73;;
18917;SDS011;9591;52.742;13.650;2023-04-08T05:10:54;47.37;;;16.53;;
18917;SDS011;9591;52.742;13.650;2023-04-08T05:13:41;51.77;;;17.83;;
18917;SDS011;9591;52.742;13.650;2023-04-08T05:16:28;41.37;;;15.93;;
18917;SDS011;9591;52.742;13.650;2023-04-08T05:19:14;47.83;;;16.90;;
18917;SDS011;9591;52.742;13.650;2023-04-08T05:22:03;42.60;;;13.07;;
18917;SDS011;9591;52.742;13.650;2023-04-08T05:24:49;50.13;;;17.57;;
18917;SDS011;9591;52.742;13.650;2023-04-08T05:27:36;45.77;;;16.47;;
18917;SDS011;9591;52.742;13.650;2023-04-08T05:30:24;50.13;;;17.07;;
18917;SDS011;9591;52.742;13.650;2023-04-08T05:33:11;48.03;;;17.47;;
18917;SDS011;9591;52.742;13.650;2023-04-08T05:35:58;45.90;;;15.23;;
18917;SDS011;9591;52.742;13.650;2023-04-08T05:38:46;55.40;;;15.47;;
18917;SDS011;9591;52.742;13.650;2023-04-08T05:41:33;52.03;;;16.53;;
18917;SDS011;9591;52.742;13.650;2023-04-08T05:44:20;52.20;;;16.63;;
18917;SDS011;9591;52.742;13.650;2023-04-08T05:47:07;50.27;;;16.53;;
18917;SDS011;9591;52.742;13.650;2023-04-08T05:49:53;50.23;;;16.97;;
18917;SDS011;9591;52.742;13.650;2023-04-08T05:52:41;50.03;;;17.80;;
18917;SDS011;9591;52.742;13.650;2023-04-08T05:55:30;53.57;;;18.23;;
18917;SDS011;9591;52.742;13.650;2023-04-08T05:58:17;57.53;;;16.43;;
18917;SDS011;9591;52.742;13.650;2023-04-08T06:01:03;59.27;;;19.03;;
18917;SDS011;9591;52.742;13.650;2023-04-08T06:03:51;50.57;;;17.97;;
18917;SDS011;9591;52.742;13.650;2023-04-08T06:06:40;55.90;;;17.67;;
18917;SDS011;9591;52.742;13.650;2023-04-08T06:09:27;46.77;;;17.53;;
18917;SDS011;9591;52.742;13.650;2023-04-08T06:12:15;57.43;;;18.93;;
18917;SDS011;9591;52.742;13.650;2023-04-08T06:15:02;56.67;;;17.93;;
18917;SDS011;9591;52.742;13.650;2023-04-08T06:17:49;59.77;;;19.70;;
18917;SDS011;9591;52.742;13.650;2023-04-08T06:20:36;56.80;;;17.47;;
18917;SDS011;9591;52.742;13.650;2023-04-08T06:23:23;58.20;;;17.93;;
18917;SDS011;9591;52.742;13.650;2023-04-08T06:26:09;63.17;;;19.83;;
18917;SDS011;9591;52.742;13.650;2023-04-08T06:28:58;51.53;;;17.77;;
18917;SDS011;9591;52.742;13.650;2023-04-08T06:31:46;66.63;;;17.87;;
18917;SDS011;9591;52.742;13.650;2023-04-08T06:34:33;62.23;;;19.50;;
18917;SDS011;9591;52.742;13.650;2023-04-08T06:37:19;54.77;;;18.03;;
18917;SDS011;9591;52.742;13.650;2023-04-08T06:40:07;58.13;;;18.13;;
18917;SDS011;9591;52.742;13.650;2023-04-08T06:42:54;63.53;;;19.97;;
18917;SDS011;9591;52.742;13.650;2023-04-08T06:45:54;56.47;;;17.53;;
18917;SDS011;9591;52.742;13.650;2023-04-08T06:48:41;52.90;;;17.07;;
18917;SDS011;9591;52.742;13.650;2023-04-08T06:51:28;55.00;;;18.20;;
18917;SDS011;9591;52.742;13.650;2023-04-08T06:54:15;49.73;;;17.13;;
18917;SDS011;9591;52.742;13.650;2023-04-08T06:57:02;57.57;;;18.43;;
18917;SDS011;9591;52.742;13.650;2023-04-08T06:59:49;58.67;;;18.67;;
18917;SDS011;9591;52.742;13.650;2023-04-08T07:02:39;54.70;;;17.70;;
18917;SDS011;9591;52.742;13.650;2023-04-08T07:05:26;65.97;;;19.23;;
18917;SDS011;9591;52.742;13.650;2023-04-08T07:08:13;52.00;;;17.10;;
18917;SDS011;9591;52.742;13.650;2023-04-08T07:10:59;61.33;;;18.73;;
18917;SDS011;9591;52.742;13.650;2023-04-08T07:13:46;51.00;;;18.03;;
18917;SDS011;9591;52.742;13.650;2023-04-08T07:16:33;58.47;;;18.27;;
18917;SDS011;9591;52.742;13.650;2023-04-08T07:19:21;49.43;;;16.73;;
18917;SDS011;9591;52.742;13.650;2023-04-08T07:22:08;47.63;;;16.77;;
18917;SDS011;9591;52.742;13.650;2023-04-08T07:24:55;53.27;;;17.33;;
18917;SDS011;9591;52.742;13.650;2023-04-08T07:27:42;53.43;;;17.63;;
18917;SDS011;9591;52.742;13.650;2023-04-08T07:30:29;54.93;;;18.63;;
18917;SDS011;9591;52.742;13.650;2023-04-08T07:33:16;50.80;;;17.10;;
18917;SDS011;9591;52.742;13.650;2023-04-08T07:36:04;50.53;;;17.33;;
18917;SDS011;9591;52.742;13.650;2023-04-08T07:38:51;53.10;;;17.43;;
18917;SDS011;9591;52.742;13.650;2023-04-08T07:41:38;55.27;;;19.53;;
18917;SDS011;9591;52.742;13.650;2023-04-08T07:44:24;47.53;;;17.33;;
18917;SDS011;9591;52.742;13.650;2023-04-08T07:47:11;50.87;;;19.03;;
18917;SDS011;9591;52.742;13.650;2023-04-08T07:49:58;51.47;;;17.40;;
18917;SDS011;9591;52.742;13.650;2023-04-08T07:52:46;50.93;;;17.00;;
18917;SDS011;9591;52.742;13.650;2023-04-08T07:55:33;57.77;;;19.00;;
18917;SDS011;9591;52.742;13.650;2023-04-08T07:58:20;55.33;;;17.33;;
18917;SDS011;9591;52.742;13.650;2023-04-08T08:01:13;65.50;;;18.70;;
18917;SDS011;9591;52.742;13.650;2023-04-08T08:04:02;56.00;;;18.53;;
18917;SDS011;9591;52.742;13.650;2023-04-08T08:06:50;48.63;;;17.77;;
18917;SDS011;9591;52.742;13.650;2023-04-08T08:09:38;52.67;;;17.97;;
18917;SDS011;9591;52.742;13.650;2023-04-08T08:12:24;65.53;;;18.53;;
18917;SDS011;9591;52.742;13.650;2023-04-08T08:15:11;58.90;;;18.33;;
18917;SDS011;9591;52.742;13.650;2023-04-08T08:17:58;55.10;;;15.47;;
18917;SDS011;9591;52.742;13.650;2023-04-08T08:20:45;60.10;;;17.77;;
18917;SDS011;9591;52.742;13.650;2023-04-08T08:23:32;53.53;;;17.17;;
18917;SDS011;9591;52.742;13.650;2023-04-08T08:26:20;52.33;;;16.30;;
18917;SDS011;9591;52.742;13.650;2023-04-08T08:29:07;52.40;;;16.60;;
18917;SDS011;9591;52.742;13.650;2023-04-08T08:31:54;47.37;;;16.87;;
18917;SDS011;9591;52.742;13.650;2023-04-08T08:34:41;49.63;;;16.93;;
18917;SDS011;9591;52.742;13.650;2023-04-08T08:37:28;52.30;;;17.27;;
18917;SDS011;9591;52.742;13.650;2023-04-08T08:40:14;60.83;;;16.47;;
18917;SDS011;9591;52.742;13.650;2023-04-08T08:43:03;55.43;;;17.50;;
18917;SDS011;9591;52.742;13.650;2023-04-08T08:45:50;53.80;;;17.53;;
18917;SDS011;9591;52.742;13.650;2023-04-08T08:48:36;46.40;;;16.03;;
18917;SDS011;9591;52.742;13.650;2023-04-08T08:51:24;54.43;;;16.27;;
18917;SDS011;9591;52.742;13.650;2023-04-08T08:54:13;51.70;;;16.23;;
18917;SDS011;9591;52.742;13.650;2023-04-08T08:57:00;43.23;;;14.67;;
18917;SDS011;9591;52.742;13.650;2023-04-08T08:59:49;46.50;;;16.33;;
18917;SDS011;9591;52.742;13.650;2023-04-08T09:02:35;49.37;;;17.97;;
18917;SDS011;9591;52.742;13.650;2023-04-08T09:05:22;50.33;;;17.43;;
18917;SDS011;9591;52.742;13.650;2023-04-08T09:08:13;45.87;;;16.93;;
18917;SDS011;9591;52.742;13.650;2023-04-08T09:11:12;40.00;;;15.63;;
18917;SDS011;9591;52.742;13.650;2023-04-08T09:14:00;45.27;;;15.60;;
18917;SDS011;9591;52.742;13.650;2023-04-08T09:16:49;44.50;;;15.50;;
18917;SDS011;9591;52.742;13.650;2023-04-08T09:19:36;42.70;;;14.83;;
18917;SDS011;9591;52.742;13.650;2023-04-08T09:22:23;36.80;;;15.30;;
18917;SDS011;9591;52.742;13.650;2023-04-08T09:25:21;47.63;;;16.93;;
18917;SDS011;9591;52.742;13.650;2023-04-08T09:28:17;47.13;;;17.27;;
18917;SDS011;9591;52.742;13.650;2023-04-08T09:31:16;44.63;;;17.10;;
18917;SDS011;9591;52.742;13.650;2023-04-08T09:34:10;47.07;;;16.80;;
18917;SDS011;9591;52.742;13.650;2023-04-08T09:36:58;43.10;;;16.77;;
18917;SDS011;9591;52.742;13.650;2023-04-08T09:39:45;41.07;;;15.77;;
18917;SDS011;9591;52.742;13.650;2023-04-08T09:42:33;50.67;;;17.03;;
18917;SDS011;9591;52.742;13.650;2023-04-08T09:45:25;42.53;;;15.33;;
18917;SDS011;9591;52.742;13.650;2023-04-08T09:48:16;39.03;;;17.23;;
18917;SDS011;9591;52.742;13.650;2023-04-08T09:51:11;41.63;;;16.60;;
18917;SDS011;9591;52.742;13.650;2023-04-08T09:54:02;44.90;;;15.93;;
18917;SDS011;9591;52.742;13.650;2023-04-08T09:56:53;37.97;;;14.07;;
18917;SDS011;9591;52.742;13.650;2023-04-08T09:59:49;39.10;;;15.37;;
18917;SDS011;9591;52.742;13.650;2023-04-08T10:02:46;35.47;;;14.77;;
18917;SDS011;9591;52.742;13.650;2023-04-08T10:05:40;45.57;;;15.10;;
18917;SDS011;9591;52.742;13.650;2023-04-08T10:08:30;41.53;;;15.67;;
18917;SDS011;9591;52.742;13.650;2023-04-08T10:11:17;42.87;;;16.27;;
18917;SDS011;9591;52.742;13.650;2023-04-08T10:14:05;45.90;;;15.90;;
18917;SDS011;9591;52.742;13.650;2023-04-08T10:20:20;45.13;;;17.07;;
18917;SDS011;9591;52.742;13.650;2023-04-08T10:26:44;42.30;;;15.33;;
18917;SDS011;9591;52.742;13.650;2023-04-08T10:29:32;37.53;;;14.43;;
18917;SDS011;9591;52.742;13.650;2023-04-08T10:35:27;35.57;;;14.23;;
18917;SDS011;9591;52.742;13.650;2023-04-08T10:38:14;35.93;;;14.60;;
18917;SDS011;9591;52.742;13.650;2023-04-08T10:41:03;34.87;;;13.90;;
18917;SDS011;9591;52.742;13.650;2023-04-08T10:43:50;31.00;;;13.17;;
18917;SDS011;9591;52.742;13.650;2023-04-08T10:46:37;35.13;;;14.77;;
18917;SDS011;9591;52.742;13.650;2023-04-08T10:49:30;33.30;;;13.30;;
18917;SDS011;9591;52.742;13.650;2023-04-08T10:52:18;31.43;;;13.87;;
18917;SDS011;9591;52.742;13.650;2023-04-08T10:55:06;33.67;;;12.97;;
18917;SDS011;9591;52.742;13.650;2023-04-08T10:57:54;36.70;;;13.90;;
18917;SDS011;9591;52.742;13.650;2023-04-08T11:00:42;36.53;;;14.17;;
18917;SDS011;9591;52.742;13.650;2023-04-08T11:03:30;33.97;;;14.60;;
18917;SDS011;9591;52.742;13.650;2023-04-08T11:06:18;28.43;;;13.63;;
18917;SDS011;9591;52.742;13.650;2023-04-08T11:09:05;34.33;;;13.77;;
18917;SDS011;9591;52.742;13.650;2023-04-08T11:11:51;43.33;;;16.50;;
18917;SDS011;9591;52.742;13.650;2023-04-08T11:14:40;27.83;;;12.10;;
18917;SDS011;9591;52.742;13.650;2023-04-08T11:17:28;27.00;;;12.33;;
18917;SDS011;9591;52.742;13.650;2023-04-08T11:20:15;31.07;;;13.37;;
18917;SDS011;9591;52.742;13.650;2023-04-08T11:23:02;34.63;;;13.93;;
18917;SDS011;9591;52.742;13.650;2023-04-08T11:25:49;35.23;;;12.60;;
18917;SDS011;9591;52.742;13.650;2023-04-08T11:28:41;31.30;;;12.63;;
18917;SDS011;9591;52.742;13.650;2023-04-08T11:31:30;26.30;;;13.07;;
18917;SDS011;9591;52.742;13.650;2023-04-08T11:34:21;26.90;;;12.53;;
18917;SDS011;9591;52.742;13.650;2023-04-08T11:37:09;29.83;;;14.03;;
18917;SDS011;9591;52.742;13.650;2023-04-08T11:39:55;25.57;;;12.40;;
18917;SDS011;9591;52.742;13.650;2023-04-08T11:42:42;30.63;;;13.90;;
18917;SDS011;9591;52.742;13.650;2023-04-08T11:45:36;34.23;;;13.77;;
18917;SDS011;9591;52.742;13.650;2023-04-08T11:48:25;30.90;;;13.43;;
18917;SDS011;9591;52.742;13.650;2023-04-08T11:51:13;30.00;;;12.47;;
18917;SDS011;9591;52.742;13.650;2023-04-08T11:54:00;34.73;;;13.43;;
18917;SDS011;9591;52.742;13.650;2023-04-08T11:56:50;28.43;;;12.53;;
18917;SDS011;9591;52.742;13.650;2023-04-08T11:59:37;27.07;;;12.87;;
18917;SDS011;9591;52.742;13.650;2023-04-08T12:02:24;28.97;;;12.70;;
18917;SDS011;9591;52.742;13.650;2023-04-08T12:05:12;31.27;;;12.87;;
18917;SDS011;9591;52.742;13.650;2023-04-08T12:07:59;27.47;;;11.97;;
18917;SDS011;9591;52.742;13.650;2023-04-08T12:10:46;26.37;;;12.50;;
18917;SDS011;9591;52.742;13.650;2023-04-08T12:13:33;27.30;;;12.63;;
18917;SDS011;9591;52.742;13.650;2023-04-08T12:16:20;26.40;;;11.90;;
18917;SDS011;9591;52.742;13.650;2023-04-08T12:19:07;30.07;;;12.47;;
18917;SDS011;9591;52.742;13.650;2023-04-08T12:21:55;26.73;;;12.50;;
18917;SDS011;9591;52.742;13.650;2023-04-08T12:24:42;27.57;;;12.17;;
18917;SDS011;9591;52.742;13.650;2023-04-08T12:27:28;30.43;;;12.73;;
18917;SDS011;9591;52.742;13.650;2023-04-08T12:30:17;31.17;;;14.20;;
18917;SDS011;9591;52.742;13.650;2023-04-08T12:33:04;30.20;;;13.23;;
18917;SDS011;9591;52.742;13.650;2023-04-08T12:35:51;25.23;;;12.20;;
18917;SDS011;9591;52.742;13.650;2023-04-08T12:38:39;35.67;;;15.60;;
18917;SDS011;9591;52.742;13.650;2023-04-08T12:41:26;26.77;;;12.33;;
18917;SDS011;9591;52.742;13.650;2023-04-08T12:44:12;28.83;;;12.53;;
18917;SDS011;9591;52.742;13.650;2023-04-08T12:46:59;33.30;;;13.13;;
18917;SDS011;9591;52.742;13.650;2023-04-08T12:49:46;30.03;;;13.33;;
18917;SDS011;9591;52.742;13.650;2023-04-08T12:52:33;27.43;;;11.93;;
18917;SDS011;9591;52.742;13.650;2023-04-08T12:55:22;32.50;;;13.10;;
18917;SDS011;9591;52.742;13.650;2023-04-08T12:58:10;30.00;;;12.93;;
18917;SDS011;9591;52.742;13.650;2023-04-08T13:00:57;28.97;;;12.60;;
18917;SDS011;9591;52.742;13.650;2023-04-08T13:03:43;23.67;;;12.17;;
18917;SDS011;9591;52.742;13.650;2023-04-08T13:06:32;21.60;;;10.90;;
18917;SDS011;9591;52.742;13.650;2023-04-08T13:09:19;21.00;;;11.83;;
18917;SDS011;9591;52.742;13.650;2023-04-08T13:12:12;26.33;;;10.77;;
18917;SDS011;9591;52.742;13.650;2023-04-08T13:15:00;25.30;;;11.70;;
18917;SDS011;9591;52.742;13.650;2023-04-08T13:17:47;24.63;;;12.03;;
18917;SDS011;9591;52.742;13.650;2023-04-08T13:20:34;26.83;;;12.60;;
18917;SDS011;9591;52.742;13.650;2023-04-08T13:23:22;27.93;;;12.47;;
18917;SDS011;9591;52.742;13.650;2023-04-08T13:26:08;21.80;;;10.10;;
18917;SDS011;9591;52.742;13.650;2023-04-08T13:28:57;20.70;;;9.50;;
18917;SDS011;9591;52.742;13.650;2023-04-08T13:31:44;22.63;;;10.73;;
18917;SDS011;9591;52.742;13.650;2023-04-08T13:34:30;20.87;;;9.80;;
18917;SDS011;9591;52.742;13.650;2023-04-08T13:37:17;24.10;;;10.77;;
18917;SDS011;9591;52.742;13.650;2023-04-08T13:40:04;17.17;;;9.70;;
18917;SDS011;9591;52.742;13.650;2023-04-08T13:42:53;19.07;;;10.23;;
18917;SDS011;9591;52.742;13.650;2023-04-08T13:45:41;18.37;;;9.83;;
18917;SDS011;9591;52.742;13.650;2023-04-08T13:48:28;18.50;;;8.53;;
18917;SDS011;9591;52.742;13.650;2023-04-08T13:51:15;17.13;;;8.80;;
18917;SDS011;9591;52.742;13.650;2023-04-08T13:54:02;15.83;;;9.20;;
18917;SDS011;9591;52.742;13.650;2023-04-08T13:56:49;16.27;;;9.57;;
18917;SDS011;9591;52.742;13.650;2023-04-08T13:59:36;16.63;;;8.87;;
18917;SDS011;9591;52.742;13.650;2023-04-08T14:02:24;14.57;;;7.97;;
18917;SDS011;9591;52.742;13.650;2023-04-08T14:05:11;20.07;;;8.60;;
18917;SDS011;9591;52.742;13.650;2023-04-08T14:07:58;16.50;;;8.60;;
18917;SDS011;9591;52.742;13.650;2023-04-08T14:10:44;18.93;;;9.00;;
18917;SDS011;9591;52.742;13.650;2023-04-08T14:13:31;16.90;;;8.80;;
18917;SDS011;9591;52.742;13.650;2023-04-08T14:16:18;16.03;;;8.87;;
18917;SDS011;9591;52.742;13.650;2023-04-08T14:19:06;16.63;;;8.70;;
18917;SDS011;9591;52.742;13.650;2023-04-08T14:21:53;14.93;;;8.43;;
18917;SDS011;9591;52.742;13.650;2023-04-08T14:24:41;12.93;;;7.93;;
18917;SDS011;9591;52.742;13.650;2023-04-08T14:27:28;11.70;;;7.10;;
18917;SDS011;9591;52.742;13.650;2023-04-08T14:30:15;11.67;;;6.90;;
18917;SDS011;9591;52.742;13.650;2023-04-08T14:33:02;12.13;;;7.60;;
18917;SDS011;9591;52.742;13.650;2023-04-08T14:35:52;14.43;;;8.00;;
18917;SDS011;9591;52.742;13.650;2023-04-08T14:38:39;14.50;;;8.43;;
18917;SDS011;9591;52.742;13.650;2023-04-08T14:41:26;16.03;;;8.00;;
18917;SDS011;9591;52.742;13.650;2023-04-08T14:44:13;13.93;;;7.70;;
18917;SDS011;9591;52.742;13.650;2023-04-08T14:47:00;15.53;;;8.30;;
18917;SDS011;9591;52.742;13.650;2023-04-08T14:49:46;15.30;;;8.37;;
18917;SDS011;9591;52.742;13.650;2023-04-08T14:52:35;13.03;;;7.93;;
18917;SDS011;9591;52.742;13.650;2023-04-08T14:55:22;15.27;;;9.03;;
18917;SDS011;9591;52.742;13.650;2023-04-08T14:58:10;14.00;;;8.13;;
18917;SDS011;9591;52.742;13.650;2023-04-08T15:00:56;13.70;;;7.73;;
18917;SDS011;9591;52.742;13.650;2023-04-08T15:03:43;16.10;;;7.57;;
18917;SDS011;9591;52.742;13.650;2023-04-08T15:06:30;11.03;;;7.27;;
18917;SDS011;9591;52.742;13.650;2023-04-08T15:09:18;10.67;;;7.27;;
18917;SDS011;9591;52.742;13.650;2023-04-08T15:12:05;14.67;;;7.57;;
18917;SDS011;9591;52.742;13.650;2023-04-08T15:14:51;13.13;;;7.87;;
18917;SDS011;9591;52.742;13.650;2023-04-08T15:17:38;17.53;;;9.63;;
18917;SDS011;9591;52.742;13.650;2023-04-08T15:20:25;18.30;;;10.43;;
18917;SDS011;9591;52.742;13.650;2023-04-08T15:23:12;19.63;;;10.50;;
18917;SDS011;9591;52.742;13.650;2023-04-08T15:26:00;20.77;;;11.57;;
18917;SDS011;9591;52.742;13.650;2023-04-08T15:28:46;19.43;;;11.93;;
18917;SDS011;9591;52.742;13.650;2023-04-08T15:31:34;19.53;;;11.27;;
18917;SDS011;9591;52.742;13.650;2023-04-08T15:34:20;21.80;;;12.33;;
18917;SDS011;9591;52.742;13.650;2023-04-08T15:37:08;22.70;;;11.83;;
18917;SDS011;9591;52.742;13.650;2023-04-08T15:39:55;23.33;;;12.53;;
18917;SDS011;9591;52.742;13.650;2023-04-08T15:42:43;20.37;;;11.40;;
18917;SDS011;9591;52.742;13.650;2023-04-08T15:45:30;18.63;;;10.30;;
18917;SDS011;9591;52.742;13.650;2023-04-08T15:48:17;18.30;;;10.40;;
18917;SDS011;9591;52.742;13.650;2023-04-08T15:51:07;18.07;;;10.40;;
18917;SDS011;9591;52.742;13.650;2023-04-08T15:53:56;17.83;;;10.00;;
18917;SDS011;9591;52.742;13.650;2023-04-08T15:56:43;17.50;;;9.83;;
18917;SDS011;9591;52.742;13.650;2023-04-08T15:59:31;21.27;;;12.20;;
18917;SDS011;9591;52.742;13.650;2023-04-08T16:02:18;31.93;;;14.30;;
18917;SDS011;9591;52.742;13.650;2023-04-08T16:05:05;27.73;;;13.67;;
18917;SDS011;9591;52.742;13.650;2023-04-08T16:07:52;29.50;;;14.20;;
18917;SDS011;9591;52.742;13.650;2023-04-08T16:10:39;30.57;;;14.83;;
18917;SDS011;9591;52.742;13.650;2023-04-08T16:13:26;29.50;;;15.70;;
18917;SDS011;9591;52.742;13.650;2023-04-08T16:16:15;27.37;;;14.17;;
18917;SDS011;9591;52.742;13.650;2023-04-08T16:19:02;32.40;;;16.23;;
18917;SDS011;9591;52.742;13.650;2023-04-08T16:21:49;32.90;;;16.03;;
18917;SDS011;9591;52.742;13.650;2023-04-08T16:24:35;34.53;;;16.33;;
18917;SDS011;9591;52.742;13.650;2023-04-08T16:27:22;33.13;;;16.10;;
18917;SDS011;9591;52.742;13.650;2023-04-08T16:30:10;34.77;;;16.93;;
18917;SDS011;9591;52.742;13.650;2023-04-08T16:32:58;32.47;;;17.00;;
18917;SDS011;9591;52.742;13.650;2023-04-08T16:35:45;33.87;;;16.20;;
18917;SDS011;9591;52.742;13.650;2023-04-08T16:38:33;31.43;;;16.00;;